Time;durP1;ratioP1;P1;durP2;ratioP2;P2;SDS_P1;SDS_P2;PMS_P1;PMS_P2;Temp;Humidity;BMP_temperature;BMP_pressure;BME280_temperature;BME280_humidity;BME280_pressure;Samples;Min_cycle;Max_cycle;Signal;HPM_P1;HPM_P2
2023/11/23 00:00:48;;;;;;;5.57;3.63;;;;;;;2.00;79.45;101446.38;5070414;28;20188;-69
2023/11/23 00:03:27;;;;;;;4.88;3.83;;;;;;;1.97;80.11;101434.16;5061833;28;20190;-68
2023/11/23 00:06:01;;;;;;;4.85;3.95;;;;;;;1.86;80.54;101410.22;5077803;28;20603;-68
2023/11/23 00:08:36;;;;;;;6.43;5.13;;;;;;;2.03;79.84;101406.06;5070805;28;20208;-69
2023/11/23 00:11:11;;;;;;;5.28;4.35;;;;;;;1.98;80.15;101378.94;5072854;28;20292;-69
2023/11/23 00:13:45;;;;;;;6.88;3.65;;;;;;;2.05;79.11;101374.72;5074903;28;20222;-68
2023/11/23 00:16:18;;;;;;;4.97;4.18;;;;;;;1.96;79.30;101347.03;5076270;28;20692;-68
2023/11/23 00:18:52;;;;;;;3.10;2.90;;;;;;;1.90;79.43;101350.25;5074222;28;20218;-70
2023/11/23 00:21:27;;;;;;;4.03;3.63;;;;;;;1.97;79.67;101335.38;5073337;28;20202;-68
2023/11/23 00:24:01;;;;;;;4.03;3.42;;;;;;;1.98;79.51;101325.56;5070523;28;20642;-68
2023/11/23 00:26:37;;;;;;;6.18;3.38;;;;;;;2.05;80.40;101313.34;5073485;28;20240;-68
2023/11/23 00:29:13;;;;;;;4.35;3.05;;;;;;;1.95;80.38;101304.44;5076034;28;20198;-66
2023/11/23 00:31:48;;;;;;;6.10;4.43;;;;;;;2.05;79.96;101294.66;5105191;28;20209;-69
2023/11/23 00:34:21;;;;;;;9.25;3.72;;;;;;;2.19;79.99;101311.13;5106712;28;20219;-68
2023/11/23 00:36:56;;;;;;;4.43;3.35;;;;;;;2.20;79.52;101285.25;5071891;28;20194;-69
2023/11/23 00:39:29;;;;;;;8.48;4.00;;;;;;;2.35;80.59;101293.72;5094514;28;20186;-69
2023/11/23 00:42:03;;;;;;;3.72;3.38;;;;;;;2.43;78.67;101288.50;5082701;28;20191;-71
2023/11/23 00:44:37;;;;;;;3.22;3.03;;;;;;;2.27;79.30;101282.88;5070116;28;20214;-70
2023/11/23 00:47:12;;;;;;;6.95;3.40;;;;;;;2.37;79.27;101273.88;5072816;28;20219;-70
2023/11/23 00:49:46;;;;;;;2.78;2.58;;;;;;;2.20;80.25;101258.56;5111829;28;20202;-68
2023/11/23 00:52:20;;;;;;;4.80;3.17;;;;;;;2.38;80.17;101266.72;5076123;28;20183;-68
2023/11/23 00:54:56;;;;;;;3.72;2.50;;;;;;;2.39;80.87;101265.72;5073668;28;20219;-69
2023/11/23 00:57:38;;;;;;;3.53;2.95;;;;;;;2.29;80.52;101260.38;5093561;28;20183;-69
2023/11/23 01:00:16;;;;;;;3.13;2.70;;;;;;;2.28;81.29;101256.03;5078529;28;20198;-69
2023/11/23 01:02:50;;;;;;;6.82;3.08;;;;;;;2.42;81.00;101257.47;5080853;28;20187;-68
2023/11/23 01:05:23;;;;;;;7.28;4.20;;;;;;;2.51;80.77;101253.94;5081905;28;20633;-69
2023/11/23 01:07:56;;;;;;;5.18;3.42;;;;;;;2.55;80.14;101258.00;5075701;28;20207;-69
2023/11/23 01:10:32;;;;;;;4.25;3.47;;;;;;;2.70;80.47;101259.25;5102274;27;20194;-69
2023/11/23 01:13:11;;;;;;;4.95;3.25;;;;;;;2.58;80.79;101249.69;5081235;28;20226;-67
2023/11/23 01:15:48;;;;;;;3.33;2.35;;;;;;;2.66;80.75;101249.84;5069204;28;20282;-69
2023/11/23 01:18:22;;;;;;;4.15;3.47;;;;;;;2.73;79.53;101226.91;5077185;28;20244;-69
2023/11/23 01:20:57;;;;;;;4.28;3.60;;;;;;;2.70;80.34;101227.19;5077227;28;20231;-70
2023/11/23 01:23:29;;;;;;;5.03;2.20;;;;;;;2.72;79.20;101214.50;5075731;28;20305;-69
2023/11/23 01:26:04;;;;;;;3.15;2.53;;;;;;;2.78;79.53;101215.78;5092418;28;20224;-69
2023/11/23 01:28:41;;;;;;;2.78;2.05;;;;;;;2.87;80.25;101205.06;5076899;28;20211;-71
2023/11/23 01:31:15;;;;;;;7.10;2.97;;;;;;;2.98;79.86;101196.88;5098859;27;20314;-69
2023/11/23 01:33:48;;;;;;;6.03;2.70;;;;;;;2.99;79.64;101193.22;5077343;28;20289;-68
2023/11/23 01:36:20;;;;;;;7.32;2.72;;;;;;;2.93;79.00;101195.63;5085131;28;20191;-69
2023/11/23 01:38:54;;;;;;;5.57;3.72;;;;;;;3.11;79.04;101195.69;5071339;28;20214;-69
2023/11/23 01:41:28;;;;;;;4.10;1.80;;;;;;;3.17;78.46;101200.47;5076726;28;20279;-69
2023/11/23 01:44:05;;;;;;;2.08;1.73;;;;;;;3.03;78.67;101191.94;5081326;28;20222;-69
2023/11/23 01:46:46;;;;;;;2.13;1.60;;;;;;;3.10;78.96;101180.66;5082493;28;20702;-68
2023/11/23 01:49:20;;;;;;;1.67;1.58;;;;;;;3.24;79.64;101182.84;5092469;28;20215;-70
2023/11/23 01:51:51;;;;;;;2.72;2.50;;;;;;;3.33;78.17;101179.28;5118370;27;20195;-70
2023/11/23 01:54:24;;;;;;;2.85;2.00;;;;;;;3.20;78.30;101178.75;5098763;28;20219;-69
2023/11/23 01:56:59;;;;;;;1.65;1.55;;;;;;;3.39;78.66;101181.34;5076881;28;20614;-70
2023/11/23 01:59:37;;;;;;;14.75;2.05;;;;;;;3.35;78.26;101166.59;5072769;28;20232;-70
2023/11/23 02:02:11;;;;;;;2.40;1.45;;;;;;;3.35;78.78;101158.56;5078304;28;20274;-69
2023/11/23 02:04:43;;;;;;;4.40;1.60;;;;;;;3.41;78.98;101152.63;5079349;28;20211;-67
2023/11/23 02:07:16;;;;;;;2.83;2.40;;;;;;;3.56;79.14;101151.13;5080217;28;20278;-69
2023/11/23 02:09:49;;;;;;;5.07;2.70;;;;;;;3.64;77.79;101148.53;5076275;28;20207;-69
2023/11/23 02:12:23;;;;;;;2.05;1.42;;;;;;;3.58;78.74;101149.16;5079675;28;20668;-67
2023/11/23 02:14:58;;;;;;;3.25;2.33;;;;;;;3.67;79.06;101142.88;5102193;28;20306;-70
2023/11/23 02:17:34;;;;;;;1.95;1.48;;;;;;;3.63;79.44;101136.13;5077079;28;20194;-68
2023/11/23 02:20:13;;;;;;;2.63;1.60;;;;;;;3.64;79.99;101127.09;5076093;28;20191;-67
2023/11/23 02:22:46;;;;;;;3.95;2.45;;;;;;;3.74;79.79;101132.38;5075957;28;20685;-68
2023/11/23 02:25:18;;;;;;;1.77;1.52;;;;;;;3.86;80.09;101120.47;5069811;28;20745;-69
2023/11/23 02:27:51;;;;;;;1.52;0.95;;;;;;;4.06;79.56;101121.16;5079913;28;20226;-69
2023/11/23 02:30:23;;;;;;;2.65;2.35;;;;;;;3.94;80.47;101118.72;5074737;28;20203;-68
2023/11/23 02:33:01;;;;;;;3.95;2.25;;;;;;;4.11;80.41;101127.75;5077450;28;20200;-69
2023/11/23 02:35:35;;;;;;;1.92;1.45;;;;;;;4.15;80.67;101109.50;5098682;28;20184;-69
2023/11/23 02:38:10;;;;;;;8.50;2.40;;;;;;;4.26;80.12;101109.28;5078166;28;20278;-68
2023/11/23 02:40:45;;;;;;;3.20;2.90;;;;;;;4.32;80.17;101114.81;5075042;28;20191;-70
2023/11/23 02:43:17;;;;;;;2.47;1.63;;;;;;;4.32;80.72;101100.59;5071854;28;20215;-70
2023/11/23 02:45:51;;;;;;;1.55;1.45;;;;;;;4.37;80.71;101103.63;5076135;28;20272;-68
2023/11/23 02:48:22;;;;;;;2.95;1.60;;;;;;;4.45;80.21;101092.16;5077088;28;20210;-69
2023/11/23 02:50:57;;;;;;;2.78;1.70;;;;;;;4.42;80.36;101093.28;5075734;28;20194;-69
2023/11/23 02:53:31;;;;;;;1.90;1.52;;;;;;;4.50;80.51;101081.81;5105971;28;20218;-67
2023/11/23 02:56:07;;;;;;;2.30;2.10;;;;;;;4.37;80.29;101077.69;5075426;28;20194;-68
2023/11/23 02:58:42;;;;;;;3.63;1.42;;;;;;;4.52;81.15;101086.00;5068118;28;20382;-68
2023/11/23 03:01:15;;;;;;;1.48;1.17;;;;;;;4.50;80.39;101069.25;5084969;28;20548;-68
2023/11/23 03:03:49;;;;;;;4.03;1.20;;;;;;;4.49;81.25;101074.75;5080872;28;20239;-69
2023/11/23 03:06:21;;;;;;;2.47;2.17;;;;;;;4.65;80.81;101080.19;5064077;28;20669;-69
2023/11/23 03:08:56;;;;;;;2.63;2.05;;;;;;;4.63;81.40;101072.31;5078491;28;20235;-67
2023/11/23 03:11:32;;;;;;;2.22;1.38;;;;;;;4.62;81.38;101070.63;5071227;28;20195;-69
2023/11/23 03:14:05;;;;;;;2.63;1.45;;;;;;;4.70;81.94;101064.47;5068038;28;20253;-67
2023/11/23 03:16:41;;;;;;;1.88;1.75;;;;;;;4.69;82.03;101060.97;5063832;28;20215;-69
2023/11/23 03:19:14;;;;;;;1.58;0.82;;;;;;;4.80;81.87;101046.41;5081487;28;20184;-69
2023/11/23 03:21:51;;;;;;;2.20;1.27;;;;;;;4.90;82.69;101047.13;5071379;28;20206;-68
2023/11/23 03:24:25;;;;;;;1.70;1.33;;;;;;;4.87;82.33;101055.50;5075787;28;20345;-68
2023/11/23 03:27:00;;;;;;;1.80;1.30;;;;;;;4.92;82.73;101038.94;5077998;28;20555;-69
2023/11/23 03:29:34;;;;;;;1.40;0.93;;;;;;;4.98;82.68;101047.19;5089499;28;20195;-69
2023/11/23 03:32:10;;;;;;;2.35;1.52;;;;;;;5.06;82.94;101041.00;5068221;28;20848;-67
2023/11/23 03:34:43;;;;;;;2.15;1.55;;;;;;;5.02;82.85;101042.31;5059181;28;20238;-70
2023/11/23 03:37:16;;;;;;;1.80;1.33;;;;;;;5.13;82.90;101042.03;5072311;28;20187;-68
2023/11/23 03:39:49;;;;;;;1.45;0.93;;;;;;;5.16;83.26;101036.31;5078511;28;20215;-68
2023/11/23 03:42:26;;;;;;;2.72;1.50;;;;;;;5.12;83.51;101037.66;5074960;28;20274;-69
2023/11/23 03:44:59;;;;;;;3.05;2.22;;;;;;;5.07;83.70;101023.91;5078427;28;20226;-69
2023/11/23 03:47:33;;;;;;;2.65;1.80;;;;;;;5.20;83.97;101017.06;5074625;28;20206;-69
2023/11/23 03:50:06;;;;;;;2.00;1.10;;;;;;;5.19;84.50;101019.91;5096866;28;20290;-69
2023/11/23 03:52:42;;;;;;;3.28;1.30;;;;;;;5.25;85.11;101014.72;5072135;28;20249;-69
2023/11/23 03:55:16;;;;;;;2.25;1.70;;;;;;;5.35;85.00;101019.09;5072996;28;20272;-68
2023/11/23 03:57:51;;;;;;;3.83;2.08;;;;;;;5.30;85.12;101006.19;5071005;28;20209;-68
2023/11/23 04:00:24;;;;;;;2.67;1.40;;;;;;;5.32;85.37;101009.53;5073968;28;20672;-68
2023/11/23 04:02:58;;;;;;;2.22;1.73;;;;;;;5.33;86.13;101000.47;5069358;28;20246;-68
2023/11/23 04:05:31;;;;;;;3.05;1.80;;;;;;;5.33;86.44;100992.41;5074843;28;20218;-69
2023/11/23 04:08:04;;;;;;;2.35;1.77;;;;;;;5.34;86.90;100991.41;5070383;28;20211;-68
2023/11/23 04:10:36;;;;;;;2.22;2.03;;;;;;;5.43;86.91;100990.41;5074882;28;20298;-68
2023/11/23 04:13:14;;;;;;;9.93;1.70;;;;;;;5.42;87.18;100988.72;5073629;28;20199;-69
2023/11/23 04:15:47;;;;;;;4.18;1.52;;;;;;;5.45;87.66;100991.09;5067021;28;20219;-67
2023/11/23 04:18:22;;;;;;;2.08;1.15;;;;;;;5.47;87.79;100994.44;5056990;28;20201;-69
2023/11/23 04:20:55;;;;;;;2.40;1.23;;;;;;;5.50;87.46;100986.06;5073364;28;20290;-68
2023/11/23 04:23:27;;;;;;;3.17;1.70;;;;;;;5.43;89.32;100977.00;5070020;28;20292;-69
2023/11/23 04:26:03;;;;;;;2.90;1.77;;;;;;;5.58;88.98;100982.53;5088206;28;20188;-70
2023/11/23 04:28:41;;;;;;;2.85;1.48;;;;;;;5.61;89.57;100966.13;5094713;28;20187;-69
2023/11/23 04:31:13;;;;;;;3.20;2.38;;;;;;;5.60;89.60;100973.31;5075161;28;20231;-67
2023/11/23 04:33:49;;;;;;;4.05;1.70;;;;;;;5.65;89.80;100970.97;5076964;28;20215;-69
2023/11/23 04:36:25;;;;;;;2.55;1.63;;;;;;;5.65;89.48;100957.56;5072756;28;20195;-67
2023/11/23 04:38:58;;;;;;;5.78;2.70;;;;;;;5.69;90.08;100953.53;5084293;28;20815;-68
2023/11/23 04:41:32;;;;;;;2.30;1.92;;;;;;;5.63;89.84;100953.34;5077163;28;20278;-69
2023/11/23 04:44:07;;;;;;;3.90;2.17;;;;;;;5.68;90.34;100951.00;5068801;28;20247;-68
2023/11/23 04:46:40;;;;;;;3.00;1.80;;;;;;;5.66;90.71;100943.09;5088322;28;20187;-68
2023/11/23 04:49:12;;;;;;;5.22;1.88;;;;;;;5.67;91.38;100957.38;5070591;28;20192;-69
2023/11/23 04:51:45;;;;;;;1.92;1.65;;;;;;;5.68;91.22;100951.84;5071874;28;20545;-68
2023/11/23 04:54:20;;;;;;;3.05;1.98;;;;;;;5.70;92.11;100957.03;5068012;28;20227;-69
2023/11/23 04:56:53;;;;;;;3.80;1.73;;;;;;;5.80;92.49;100949.66;5070887;28;20202;-68
2023/11/23 04:59:31;;;;;;;3.58;1.70;;;;;;;5.82;92.00;100944.09;5077005;28;20730;-67
2023/11/23 05:02:03;;;;;;;3.00;2.53;;;;;;;5.85;92.39;100938.41;5081545;28;20293;-68
2023/11/23 05:04:36;;;;;;;6.70;2.75;;;;;;;5.84;92.99;100939.41;5077008;28;20241;-68
2023/11/23 05:07:10;;;;;;;2.00;1.30;;;;;;;5.83;93.64;100948.47;5075060;28;20196;-68
2023/11/23 05:09:43;;;;;;;5.60;1.75;;;;;;;5.86;94.37;100935.53;5075982;28;20211;-70
2023/11/23 05:12:17;;;;;;;2.30;1.35;;;;;;;5.89;94.46;100931.72;5095580;28;20620;-70
2023/11/23 05:14:56;;;;;;;8.65;3.55;;;;;;;5.93;94.61;100938.41;5075999;28;20314;-68
2023/11/23 05:17:28;;;;;;;3.33;1.85;;;;;;;5.89;95.63;100931.72;5078481;28;20685;-68
2023/11/23 05:20:02;;;;;;;2.55;1.90;;;;;;;5.84;95.94;100928.66;5073378;28;20191;-69
2023/11/23 05:22:35;;;;;;;3.42;2.00;;;;;;;5.89;96.79;100927.19;5073588;28;20191;-69
2023/11/23 05:25:09;;;;;;;2.30;1.52;;;;;;;5.99;97.24;100929.69;5107572;28;20245;-68
2023/11/23 05:27:44;;;;;;;2.83;1.83;;;;;;;6.05;97.44;100934.38;5076502;28;20195;-70
2023/11/23 05:30:19;;;;;;;5.30;2.65;;;;;;;6.08;98.26;100942.06;5073446;28;20203;-69
2023/11/23 05:32:56;;;;;;;4.55;2.40;;;;;;;6.10;97.99;100945.41;5072093;28;20191;-68
2023/11/23 05:35:30;;;;;;;4.78;2.53;;;;;;;6.06;99.80;100941.38;5070197;28;20335;-69
2023/11/23 05:38:04;;;;;;;2.55;2.05;;;;;;;6.05;100.00;100943.25;5065629;28;20196;-67
2023/11/23 05:40:39;;;;;;;2.97;2.60;;;;;;;6.16;100.00;100928.59;5093179;28;20175;-69
2023/11/23 05:43:11;;;;;;;3.05;2.30;;;;;;;6.10;100.00;100934.66;5092791;28;20207;-69
2023/11/23 05:45:46;;;;;;;4.28;2.15;;;;;;;6.17;100.00;100914.16;5070661;28;20190;-69
2023/11/23 05:48:23;;;;;;;2.40;2.00;;;;;;;6.17;100.00;100914.16;5093170;28;20249;-68
2023/11/23 05:50:59;;;;;;;3.65;2.58;;;;;;;6.15;100.00;100904.63;5076783;28;20310;-69
2023/11/23 05:53:35;;;;;;;4.88;3.47;;;;;;;6.25;100.00;100902.53;5091788;28;20210;-68
2023/11/23 05:56:13;;;;;;;5.18;3.38;;;;;;;6.30;100.00;100887.56;5074547;28;20199;-69
2023/11/23 05:58:46;;;;;;;6.07;3.00;;;;;;;6.31;100.00;100893.78;5059963;28;20195;-69
2023/11/23 06:01:22;;;;;;;4.20;2.83;;;;;;;6.38;100.00;100890.25;5072726;28;20668;-68
2023/11/23 06:03:55;;;;;;;5.18;3.90;;;;;;;6.42;100.00;100896.09;5077031;28;20225;-67
2023/11/23 06:06:29;;;;;;;9.45;2.60;;;;;;;6.45;100.00;100877.75;5080724;28;20196;-69
2023/11/23 06:09:09;;;;;;;5.65;2.95;;;;;;;6.48;100.00;100885.50;5077251;28;20199;-65
2023/11/23 06:11:41;;;;;;;7.00;4.10;;;;;;;6.48;100.00;100877.44;5067992;28;20208;-68
2023/11/23 06:14:15;;;;;;;3.20;2.58;;;;;;;6.52;100.00;100886.81;5074748;28;20219;-70
2023/11/23 06:16:50;;;;;;;6.97;4.25;;;;;;;6.58;100.00;100892.50;5079722;28;20626;-67
2023/11/23 06:19:27;;;;;;;4.80;2.92;;;;;;;6.61;100.00;100878.69;5101036;28;20218;-68
2023/11/23 06:22:00;;;;;;;3.40;2.70;;;;;;;6.65;100.00;100877.31;5076152;28;20200;-68
2023/11/23 06:24:35;;;;;;;6.60;2.95;;;;;;;6.59;100.00;100880.69;5089519;28;20271;-68
2023/11/23 06:27:10;;;;;;;5.10;3.38;;;;;;;6.58;100.00;100879.91;5091594;28;20183;-68
2023/11/23 06:29:52;;;;;;;5.20;2.85;;;;;;;6.54;100.00;100871.31;5074406;28;20282;-69
2023/11/23 06:32:30;;;;;;;5.45;3.13;;;;;;;6.54;100.00;100865.94;5075489;28;20195;-69
2023/11/23 06:35:04;;;;;;;8.25;3.47;;;;;;;6.63;100.00;100865.91;5071336;28;20211;-69
2023/11/23 06:37:41;;;;;;;3.97;2.17;;;;;;;6.62;100.00;100861.53;5092564;28;20191;-69
2023/11/23 06:40:17;;;;;;;5.38;4.30;;;;;;;6.56;100.00;100857.72;5093322;28;20209;-68
2023/11/23 06:42:51;;;;;;;6.38;3.40;;;;;;;6.56;100.00;100860.41;5078836;28;20723;-69
2023/11/23 06:45:24;;;;;;;7.30;4.05;;;;;;;6.52;100.00;100853.72;5073958;28;20260;-69
2023/11/23 06:47:59;;;;;;;4.63;3.85;;;;;;;6.59;100.00;100843.06;5075884;28;20217;-67
2023/11/23 06:50:34;;;;;;;7.55;3.85;;;;;;;6.60;100.00;100844.75;5090044;28;20203;-68
2023/11/23 06:53:10;;;;;;;8.85;3.53;;;;;;;6.54;100.00;100830.16;5074756;28;20199;-67
2023/11/23 06:55:44;;;;;;;6.95;3.97;;;;;;;6.47;100.00;100824.66;5078809;28;20298;-68
2023/11/23 06:58:31;;;;;;;5.18;3.83;;;;;;;6.60;100.00;100817.84;5075692;28;20195;-68
2023/11/23 07:01:12;;;;;;;5.95;3.58;;;;;;;6.63;100.00;100817.50;5073800;28;20198;-67
2023/11/23 07:03:48;;;;;;;6.65;3.72;;;;;;;6.59;100.00;100816.19;5089942;28;20587;-69
2023/11/23 07:06:23;;;;;;;10.13;3.63;;;;;;;6.55;100.00;100810.31;5078786;28;20338;-68
2023/11/23 07:08:59;;;;;;;7.13;5.35;;;;;;;6.63;100.00;100814.81;5074403;28;20186;-68
2023/11/23 07:11:34;;;;;;;4.90;3.90;;;;;;;6.68;100.00;100809.75;5074905;28;20210;-68
2023/11/23 07:14:15;;;;;;;6.22;3.70;;;;;;;6.64;100.00;100798.50;5053664;28;20704;-69
2023/11/23 07:16:51;;;;;;;8.13;4.13;;;;;;;6.65;100.00;100778.66;5071383;28;20633;-68
2023/11/23 07:19:26;;;;;;;4.38;3.22;;;;;;;6.68;100.00;100791.72;5095790;28;20259;-69
2023/11/23 07:22:00;;;;;;;10.30;3.55;;;;;;;6.76;100.00;100769.34;5073473;28;20215;-69
2023/11/23 07:24:35;;;;;;;6.30;4.22;;;;;;;6.80;100.00;100781.41;5068357;28;20219;-70
2023/11/23 07:27:12;;;;;;;8.88;6.20;;;;;;;6.85;100.00;100758.34;5089380;28;20183;-69
2023/11/23 07:29:49;;;;;;;4.80;3.97;;;;;;;6.83;100.00;100770.28;5073036;28;20202;-68
2023/11/23 07:32:21;;;;;;;13.27;3.78;;;;;;;6.88;100.00;100751.75;5076403;28;20203;-69
2023/11/23 07:34:56;;;;;;;5.70;3.72;;;;;;;6.97;100.00;100762.25;5076589;28;20225;-69
2023/11/23 07:37:33;;;;;;;5.20;3.78;;;;;;;6.95;100.00;100747.31;5076389;28;20198;-69
2023/11/23 07:40:12;;;;;;;9.27;4.40;;;;;;;7.00;100.00;100753.00;5077986;28;20195;-68
2023/11/23 07:42:45;;;;;;;4.72;3.28;;;;;;;7.08;100.00;100755.59;5070693;28;20265;-69
2023/11/23 07:45:18;;;;;;;8.10;3.05;;;;;;;7.10;100.00;100745.50;5070687;28;20251;-69
2023/11/23 07:47:54;;;;;;;4.75;4.13;;;;;;;7.09;100.00;100735.75;5077637;28;20244;-70
2023/11/23 07:50:32;;;;;;;5.78;3.25;;;;;;;7.08;100.00;100752.91;5091677;28;20265;-69
2023/11/23 07:53:07;;;;;;;6.65;5.00;;;;;;;7.12;100.00;100732.69;5085075;28;20195;-67
2023/11/23 07:55:39;;;;;;;5.57;3.67;;;;;;;7.11;100.00;100752.56;5068395;28;20199;-69
2023/11/23 07:58:12;;;;;;;7.45;4.18;;;;;;;7.12;100.00;100756.06;5107386;27;20195;-69
2023/11/23 08:00:43;;;;;;;6.13;3.88;;;;;;;7.03;100.00;100723.03;5091366;28;20250;-69
2023/11/23 08:03:19;;;;;;;7.05;3.90;;;;;;;7.08;100.00;100731.38;5092926;28;20255;-70
2023/11/23 08:05:53;;;;;;;4.22;3.30;;;;;;;7.05;100.00;100731.75;5107074;27;20199;-68
2023/11/23 08:08:26;;;;;;;4.38;3.75;;;;;;;7.01;100.00;100708.09;5074256;28;20205;-69
2023/11/23 08:11:04;;;;;;;4.18;2.92;;;;;;;7.10;100.00;100715.91;5071933;28;20191;-68
2023/11/23 08:13:36;;;;;;;3.63;2.40;;;;;;;7.22;100.00;100722.47;5073362;28;20602;-69
2023/11/23 08:16:12;;;;;;;6.35;3.78;;;;;;;7.20;100.00;100723.69;5092828;28;20198;-67
2023/11/23 08:18:45;;;;;;;5.53;4.00;;;;;;;7.19;100.00;100711.25;5073594;28;20541;-68
2023/11/23 08:21:23;;;;;;;5.70;4.63;;;;;;;7.20;100.00;100703.00;5074521;28;20180;-69
2023/11/23 08:23:56;;;;;;;9.15;5.50;;;;;;;7.15;100.00;100691.97;5076313;28;20215;-69
2023/11/23 08:26:28;;;;;;;5.80;3.67;;;;;;;7.23;100.00;100697.25;5107977;28;20679;-69
2023/11/23 08:29:00;;;;;;;6.15;3.33;;;;;;;7.28;100.00;100700.22;5072522;28;20200;-69
2023/11/23 08:31:35;;;;;;;5.78;3.67;;;;;;;7.27;100.00;100693.16;5076786;28;20632;-69
2023/11/23 08:34:07;;;;;;;6.68;3.85;;;;;;;7.31;100.00;100670.22;5078679;28;20219;-67
2023/11/23 08:36:46;;;;;;;4.97;3.80;;;;;;;7.34;100.00;100682.50;5077152;28;20294;-68
2023/11/23 08:39:19;;;;;;;8.75;4.47;;;;;;;7.41;100.00;100661.88;5073127;28;20193;-68
2023/11/23 08:41:53;;;;;;;5.93;4.30;;;;;;;7.46;100.00;100675.59;5073499;28;20225;-68
2023/11/23 08:44:28;;;;;;;6.10;3.20;;;;;;;7.51;100.00;100666.97;5076945;28;20229;-69
2023/11/23 08:47:02;;;;;;;5.93;3.58;;;;;;;7.43;100.00;100666.06;5076387;28;20668;-70
2023/11/23 08:49:35;;;;;;;6.82;4.10;;;;;;;7.42;100.00;100653.59;5059522;28;20191;-69
2023/11/23 08:52:09;;;;;;;6.55;3.60;;;;;;;7.48;100.00;100667.34;5075534;28;20211;-68
2023/11/23 08:54:46;;;;;;;6.05;3.60;;;;;;;7.55;100.00;100655.63;5068170;28;20302;-68
2023/11/23 08:57:18;;;;;;;5.25;4.40;;;;;;;7.55;100.00;100665.59;5103315;28;20202;-68
2023/11/23 08:59:51;;;;;;;6.28;3.33;;;;;;;7.61;100.00;100648.66;5078542;28;20199;-68
2023/11/23 09:02:25;;;;;;;6.15;3.70;;;;;;;7.65;100.00;100637.31;5066549;28;20215;-67
2023/11/23 09:04:59;;;;;;;5.75;4.05;;;;;;;7.70;100.00;100640.28;5071747;28;20474;-68
2023/11/23 09:07:32;;;;;;;9.27;4.38;;;;;;;7.70;100.00;100625.97;5079618;28;20192;-68
2023/11/23 09:10:05;;;;;;;5.85;3.03;;;;;;;7.76;100.00;100634.13;5060961;28;20681;-68
2023/11/23 09:12:35;;;;;;;3.47;3.17;;;;;;;7.80;100.00;100631.88;5067206;28;20774;-68
2023/11/23 09:15:09;;;;;;;5.47;4.57;;;;;;;7.83;100.00;100639.59;5072048;28;20220;-66
2023/11/23 09:17:40;;;;;;;7.32;4.07;;;;;;;7.94;100.00;100635.59;5076206;28;20282;-68
2023/11/23 09:20:27;;;;;;;3.50;2.60;;;;;;;7.93;100.00;100628.53;5079805;28;20282;-67
2023/11/23 09:23:13;;;;;;;6.43;4.20;;;;;;;7.91;100.00;100626.00;5086638;28;20196;-68
2023/11/23 09:25:51;;;;;;;3.42;2.92;;;;;;;7.88;100.00;100604.84;5078302;28;20575;-67
2023/11/23 09:28:28;;;;;;;6.63;3.75;;;;;;;7.94;100.00;100590.59;5108333;28;20195;-65
2023/11/23 09:31:08;;;;;;;9.40;3.92;;;;;;;7.94;100.00;100601.38;5094811;28;20195;-65
2023/11/23 09:33:52;;;;;;;5.90;4.43;;;;;;;7.98;100.00;100596.44;5087336;28;20219;-65
2023/11/23 09:36:34;;;;;;;3.15;2.65;;;;;;;7.93;100.00;100602.41;5079016;28;20579;-66
2023/11/23 09:39:17;;;;;;;4.18;3.25;;;;;;;7.96;100.00;100593.94;5082821;28;20299;-68
2023/11/23 09:42:00;;;;;;;5.63;4.18;;;;;;;7.99;100.00;100582.75;5076919;28;20199;-67
2023/11/23 09:44:38;;;;;;;4.20;3.47;;;;;;;7.99;100.00;100569.28;5078813;28;20214;-67
2023/11/23 09:47:16;;;;;;;3.42;2.70;;;;;;;8.10;100.00;100571.47;5091411;28;20205;-67
2023/11/23 09:50:29;;;;;;;7.60;4.35;;;;;;;8.12;100.00;100558.66;5089583;28;20252;-69
2023/11/23 09:53:16;;;;;;;5.75;4.25;;;;;;;8.22;100.00;100553.75;5101531;28;20219;-67
2023/11/23 09:55:56;;;;;;;8.07;3.90;;;;;;;8.22;100.00;100542.13;5075316;28;20202;-67
2023/11/23 09:58:35;;;;;;;4.75;3.67;;;;;;;8.19;100.00;100554.13;5067246;28;20278;-68
2023/11/23 10:01:13;;;;;;;7.45;4.38;;;;;;;8.34;100.00;100555.94;5076921;28;20203;-67
2023/11/23 10:03:59;;;;;;;5.63;4.00;;;;;;;8.32;100.00;100539.13;5075823;28;20269;-68
2023/11/23 10:09:35;;;;;;;4.38;3.00;;;;;;;8.42;100.00;100529.69;5094268;28;20214;-68
2023/11/23 10:12:27;;;;;;;5.60;3.70;;;;;;;8.53;100.00;100528.28;5091368;28;20207;-69
2023/11/23 10:15:06;;;;;;;4.93;3.65;;;;;;;8.49;100.00;100510.81;5092624;28;20211;-69
2023/11/23 10:17:46;;;;;;;5.25;3.25;;;;;;;8.42;100.00;100509.97;5081143;28;20219;-67
2023/11/23 10:20:24;;;;;;;3.60;3.22;;;;;;;8.50;100.00;100513.34;5075232;28;20195;-67
2023/11/23 10:23:08;;;;;;;5.13;2.75;;;;;;;8.37;100.00;100485.47;5075338;28;20191;-68
2023/11/23 10:25:51;;;;;;;4.18;3.30;;;;;;;8.45;100.00;100488.00;5069809;28;20195;-68
2023/11/23 10:28:34;;;;;;;7.65;3.28;;;;;;;8.37;100.00;100482.75;5076979;28;20214;-68
2023/11/23 10:31:20;;;;;;;5.30;3.28;;;;;;;8.40;100.00;100458.09;5073361;28;20192;-67
2023/11/23 10:34:07;;;;;;;4.18;2.85;;;;;;;8.41;100.00;100459.75;5078198;28;20227;-69
2023/11/23 10:36:48;;;;;;;5.30;3.05;;;;;;;8.46;100.00;100447.34;5070477;28;20614;-68
2023/11/23 10:39:34;;;;;;;3.50;2.55;;;;;;;8.51;100.00;100450.28;5071029;28;20699;-67
2023/11/23 10:42:23;;;;;;;5.15;3.03;;;;;;;8.52;100.00;100446.53;5079827;28;20207;-68
2023/11/23 10:45:01;;;;;;;4.07;2.90;;;;;;;8.41;100.00;100425.56;5076135;28;20222;-69
2023/11/23 10:47:47;;;;;;;5.32;4.68;;;;;;;8.58;100.00;100417.94;5087940;28;20230;-68
2023/11/23 10:50:25;;;;;;;4.53;3.20;;;;;;;8.61;100.00;100421.09;5070750;28;20188;-68
2023/11/23 10:53:10;;;;;;;6.25;3.97;;;;;;;8.60;100.00;100399.69;5076362;28;20585;-68
2023/11/23 10:55:50;;;;;;;3.33;2.67;;;;;;;8.61;100.00;100412.16;5077222;28;20206;-69
2023/11/23 10:58:28;;;;;;;5.45;3.65;;;;;;;8.61;100.00;100401.38;5097224;28;20286;-68
2023/11/23 11:01:09;;;;;;;4.45;3.28;;;;;;;8.63;100.00;100401.97;5078980;28;20207;-69
2023/11/23 11:03:53;;;;;;;6.40;4.20;;;;;;;8.58;100.00;100401.75;5080625;28;20219;-69
2023/11/23 11:06:48;;;;;;;7.45;3.08;;;;;;;8.57;100.00;100400.09;5063477;28;20282;-68
2023/11/23 11:09:34;;;;;;;6.68;3.90;;;;;;;8.53;100.00;100409.63;5084326;28;20205;-66
2023/11/23 11:12:13;;;;;;;4.30;3.13;;;;;;;8.51;100.00;100398.22;5094376;28;20198;-67
2023/11/23 11:14:57;;;;;;;4.30;3.00;;;;;;;8.60;100.00;100405.09;5083662;28;20283;-68
2023/11/23 11:17:46;;;;;;;8.90;3.47;;;;;;;8.61;100.00;100410.28;5052913;28;20187;-68
2023/11/23 11:21:01;;;;;;;6.93;4.93;;;;;;;8.51;100.00;100411.69;5075392;28;20366;-68
2023/11/23 11:23:47;;;;;;;3.42;2.70;;;;;;;8.48;100.00;100393.19;5085580;28;20620;-69
2023/11/23 11:26:33;;;;;;;3.70;2.42;;;;;;;8.56;100.00;100374.16;5062591;28;20580;-69
2023/11/23 11:29:14;;;;;;;7.20;4.55;;;;;;;8.56;100.00;100374.16;5068447;28;20673;-69
2023/11/23 11:31:49;;;;;;;8.57;3.38;;;;;;;8.53;100.00;100361.91;5082160;28;20264;-69
2023/11/23 11:34:25;;;;;;;6.45;3.22;;;;;;;8.51;100.00;100353.22;5076885;28;20304;-69
2023/11/23 11:37:01;;;;;;;9.27;3.78;;;;;;;8.57;100.00;100351.53;5076482;28;20205;-69
2023/11/23 11:39:34;;;;;;;5.22;3.80;;;;;;;8.63;100.00;100350.75;5070385;28;20191;-69
2023/11/23 11:42:06;;;;;;;5.78;2.70;;;;;;;8.67;100.00;100357.38;5068988;28;20562;-68
2023/11/23 11:44:43;;;;;;;5.88;3.20;;;;;;;8.72;100.00;100352.22;5078655;28;20239;-69
2023/11/23 11:47:14;;;;;;;5.97;4.15;;;;;;;8.77;100.00;100355.13;5106770;28;20253;-68
2023/11/23 11:49:49;;;;;;;8.20;4.00;;;;;;;8.87;100.00;100358.28;5073913;28;20281;-68
2023/11/23 11:52:21;;;;;;;4.65;3.65;;;;;;;8.92;100.00;100339.59;5084704;28;20198;-69
2023/11/23 11:54:52;;;;;;;4.78;2.42;;;;;;;8.95;100.00;100328.44;5076664;28;20219;-70
2023/11/23 11:57:24;;;;;;;3.58;2.63;;;;;;;9.03;100.00;100324.69;5079101;28;20210;-70
2023/11/23 11:59:55;;;;;;;6.13;3.80;;;;;;;9.14;100.00;100324.91;5074978;28;20195;-69
2023/11/23 12:02:26;;;;;;;4.05;3.67;;;;;;;9.19;100.00;100318.06;5089987;28;20552;-68
2023/11/23 12:05:02;;;;;;;5.10;3.40;;;;;;;9.29;100.00;100308.50;5086679;28;20234;-68
2023/11/23 12:07:34;;;;;;;4.80;3.50;;;;;;;9.36;100.00;100303.09;5095669;28;20218;-67
2023/11/23 12:10:07;;;;;;;4.75;3.00;;;;;;;9.46;100.00;100290.00;5071792;28;20469;-68
2023/11/23 12:12:47;;;;;;;5.80;2.95;;;;;;;9.53;100.00;100310.59;5076081;28;20241;-68